createdAt,value
2019-03-08T00:00:35.499Z,99.90
2019-03-08T00:03:11.138Z,99.90
2019-03-08T00:05:42.347Z,99.90
2019-03-08T00:08:12.750Z,99.90
2019-03-08T00:10:54.901Z,99.90
2019-03-08T00:13:43.944Z,99.90
2019-03-08T00:16:28.211Z,99.90
2019-03-08T00:18:58.427Z,99.90
2019-03-08T00:21:33.120Z,99.90
2019-03-08T00:24:03.107Z,99.90
2019-03-08T00:26:33.164Z,99.90
2019-03-08T00:29:03.716Z,99.90
2019-03-08T00:31:33.784Z,99.90
2019-03-08T00:34:04.248Z,99.90
2019-03-08T00:36:37.545Z,99.90
2019-03-08T00:39:08.051Z,99.90
2019-03-08T00:41:38.285Z,99.90
2019-03-08T00:44:11.557Z,99.90
2019-03-08T00:46:41.666Z,99.90
2019-03-08T00:49:12.532Z,99.90
2019-03-08T00:51:42.639Z,99.90
2019-03-08T00:54:13.393Z,99.90
2019-03-08T00:57:08.277Z,99.90
2019-03-08T01:00:03.557Z,99.90
2019-03-08T01:03:06.129Z,99.90
2019-03-08T01:05:59.237Z,99.90
2019-03-08T01:08:40.347Z,99.90
2019-03-08T01:11:12.078Z,99.90
2019-03-08T01:13:43.299Z,99.90
2019-03-08T01:16:13.732Z,99.90
2019-03-08T01:18:44.058Z,99.90
2019-03-08T01:21:14.381Z,99.90
2019-03-08T01:23:44.363Z,99.90
2019-03-08T01:26:14.130Z,99.90
2019-03-08T01:28:44.298Z,99.90
2019-03-08T01:31:14.559Z,99.90
2019-03-08T01:33:47.185Z,99.90
2019-03-08T01:36:18.422Z,99.90
2019-03-08T01:38:55.474Z,99.90
2019-03-08T01:41:36.219Z,99.90
2019-03-08T01:44:17.310Z,99.90
2019-03-08T01:46:56.565Z,99.90
2019-03-08T01:49:40.485Z,99.90
2019-03-08T01:52:26.558Z,99.90
2019-03-08T01:54:59.950Z,99.90
2019-03-08T01:57:30.186Z,99.90
2019-03-08T02:00:00.473Z,99.90
2019-03-08T02:02:30.820Z,99.90
2019-03-08T02:05:00.950Z,99.90
2019-03-08T02:07:31.079Z,99.90
2019-03-08T02:10:01.527Z,99.90
2019-03-08T02:12:31.365Z,99.90
2019-03-08T02:15:01.483Z,99.90
2019-03-08T02:17:31.665Z,99.90
2019-03-08T02:20:02.893Z,99.90
2019-03-08T02:22:32.864Z,99.90
2019-03-08T02:25:02.750Z,99.90
2019-03-08T02:27:32.717Z,99.90
2019-03-08T02:30:02.622Z,99.90
2019-03-08T02:32:32.284Z,99.90
2019-03-08T02:35:02.211Z,99.90
2019-03-08T02:37:32.005Z,99.90
2019-03-08T02:40:03.261Z,99.90
2019-03-08T02:42:33.132Z,99.90
2019-03-08T02:45:02.913Z,99.90
2019-03-08T02:47:33.267Z,99.90
2019-03-08T02:50:03.273Z,99.90
2019-03-08T02:52:33.111Z,99.90
2019-03-08T02:55:13.235Z,99.90
2019-03-08T02:57:43.275Z,99.90
2019-03-08T03:00:17.734Z,99.90
2019-03-08T03:02:47.773Z,99.90
2019-03-08T03:05:17.371Z,99.90
2019-03-08T03:07:47.581Z,99.90
2019-03-08T03:10:17.407Z,99.90
2019-03-08T03:12:47.234Z,99.90
2019-03-08T03:15:16.913Z,99.90
2019-03-08T03:17:46.725Z,99.90
2019-03-08T03:20:17.084Z,99.90
2019-03-08T03:22:46.817Z,99.90
2019-03-08T03:25:16.913Z,99.90
2019-03-08T03:27:46.595Z,99.90
2019-03-08T03:30:16.413Z,99.90
2019-03-08T03:32:46.173Z,99.90
2019-03-08T03:35:15.825Z,99.90
2019-03-08T03:37:45.872Z,99.90
2019-03-08T03:40:18.367Z,99.90
2019-03-08T03:42:48.025Z,99.90
2019-03-08T03:45:18.178Z,99.90
2019-03-08T03:47:50.783Z,99.90
2019-03-08T03:50:24.152Z,99.90
2019-03-08T03:52:53.834Z,99.90
2019-03-08T03:55:23.463Z,99.90
2019-03-08T03:57:53.407Z,99.90
2019-03-08T04:00:24.490Z,99.90
2019-03-08T04:02:54.685Z,99.90
2019-03-08T04:05:24.311Z,99.90
2019-03-08T04:07:54.366Z,99.90
2019-03-08T04:10:24.151Z,99.90
2019-03-08T04:12:53.914Z,99.90
2019-03-08T04:15:24.043Z,99.90
2019-03-08T04:17:53.721Z,99.90
2019-03-08T04:20:23.777Z,99.90
2019-03-08T04:22:53.547Z,99.90
2019-03-08T04:25:23.428Z,99.90
2019-03-08T04:27:54.152Z,99.90
2019-03-08T04:30:24.091Z,99.90
2019-03-08T04:32:53.747Z,99.90
2019-03-08T04:35:23.423Z,99.90
2019-03-08T04:37:53.265Z,99.90
2019-03-08T04:40:23.173Z,99.90
2019-03-08T04:42:52.850Z,99.90
2019-03-08T04:45:22.630Z,99.90
2019-03-08T04:47:52.331Z,99.90
2019-03-08T04:50:22.348Z,99.90
2019-03-08T04:52:52.087Z,99.90
2019-03-08T04:55:21.884Z,99.90
2019-03-08T04:57:51.891Z,99.90
2019-03-08T05:00:21.674Z,99.90
2019-03-08T05:02:54.558Z,99.90
2019-03-08T05:05:27.178Z,99.90
2019-03-08T05:07:56.938Z,99.90
2019-03-08T05:10:27.016Z,99.90
2019-03-08T05:12:56.754Z,99.90
2019-03-08T05:15:27.336Z,99.90
2019-03-08T05:17:58.459Z,99.90
2019-03-08T05:20:28.701Z,99.90
2019-03-08T05:22:59.568Z,99.90
2019-03-08T05:25:29.468Z,99.90
2019-03-08T05:27:59.154Z,99.90
2019-03-08T05:30:32.103Z,99.90
2019-03-08T05:33:02.649Z,99.90
2019-03-08T05:35:35.080Z,99.90
2019-03-08T05:38:04.944Z,99.90
2019-03-08T05:40:34.595Z,99.90
2019-03-08T05:43:04.471Z,99.90
2019-03-08T05:45:34.274Z,99.90
2019-03-08T05:48:07.545Z,99.90
2019-03-08T05:50:39.349Z,99.90
2019-03-08T05:53:10.457Z,99.90
2019-03-08T05:55:40.205Z,99.90
2019-03-08T05:58:10.039Z,99.90
2019-03-08T06:00:40.444Z,99.90
2019-03-08T06:03:10.701Z,99.90
2019-03-08T06:05:40.791Z,99.90
2019-03-08T06:08:10.977Z,99.90
2019-03-08T06:10:40.750Z,99.90
2019-03-08T06:13:10.408Z,99.90
2019-03-08T06:15:41.162Z,99.90
2019-03-08T06:18:16.996Z,99.90
2019-03-08T06:20:42.933Z,99.90
2019-03-08T06:23:13.076Z,99.90
2019-03-08T06:25:48.122Z,99.90
2019-03-08T06:28:31.620Z,99.90
2019-03-08T06:31:03.002Z,99.90
2019-03-08T06:33:34.862Z,99.90
2019-03-08T06:36:11.746Z,99.90
2019-03-08T06:38:43.099Z,99.90
2019-03-08T06:41:12.879Z,99.90
2019-03-08T06:43:42.934Z,99.90
2019-03-08T06:46:17.013Z,99.90
2019-03-08T06:48:46.726Z,99.90
2019-03-08T06:51:20.100Z,99.90
2019-03-08T06:53:52.930Z,99.90
2019-03-08T06:56:23.058Z,99.90
2019-03-08T06:59:22.848Z,99.90
2019-03-08T07:01:52.911Z,99.90
2019-03-08T07:04:23.450Z,99.90
2019-03-08T07:06:53.211Z,99.90
2019-03-08T07:09:23.477Z,99.90
2019-03-08T07:12:00.789Z,99.90
2019-03-08T07:14:34.101Z,99.90
2019-03-08T07:17:03.975Z,99.90
2019-03-08T07:19:40.760Z,99.90
2019-03-08T07:22:16.612Z,99.90
2019-03-08T07:24:58.664Z,99.90
2019-03-08T07:27:47.346Z,99.90
2019-03-08T07:30:35.188Z,99.90
2019-03-08T07:33:24.249Z,99.90
2019-03-08T07:36:13.101Z,99.90
2019-03-08T07:39:28.981Z,99.90
2019-03-08T07:42:08.856Z,99.90
2019-03-08T07:44:57.108Z,99.90
2019-03-08T07:47:38.557Z,99.90
2019-03-08T07:50:41.027Z,99.90
2019-03-08T07:53:20.810Z,99.90
2019-03-08T07:55:57.839Z,99.90
2019-03-08T07:58:45.490Z,99.90
2019-03-08T08:01:40.612Z,99.90
2019-03-08T08:04:42.190Z,99.90
2019-03-08T08:07:21.757Z,99.90
2019-03-08T08:10:17.301Z,99.90
2019-03-08T08:13:21.832Z,99.90
2019-03-08T08:16:09.258Z,99.90
2019-03-08T08:19:13.492Z,99.90
2019-03-08T08:22:12.278Z,99.90
2019-03-08T08:25:10.231Z,99.90
2019-03-08T08:27:50.741Z,99.90
2019-03-08T08:31:00.039Z,99.90
2019-03-08T08:33:52.039Z,99.90
2019-03-08T08:36:32.195Z,99.90
2019-03-08T08:39:13.268Z,99.90
2019-03-08T08:42:14.324Z,99.90
2019-03-08T08:44:59.156Z,99.90
2019-03-08T08:48:02.624Z,99.90
2019-03-08T08:50:44.520Z,99.90
2019-03-08T08:53:31.432Z,99.90
2019-03-08T08:56:18.512Z,99.90
2019-03-08T08:59:16.122Z,99.90
2019-03-08T09:02:25.117Z,99.90
2019-03-08T09:05:16.963Z,99.90
2019-03-08T09:07:55.095Z,99.90
2019-03-08T09:10:49.587Z,99.90
2019-03-08T09:13:38.806Z,99.90
2019-03-08T09:16:17.955Z,99.90
2019-03-08T09:19:22.128Z,99.90
2019-03-08T09:22:08.650Z,99.90
2019-03-08T09:24:59.913Z,99.90
2019-03-08T09:27:36.651Z,99.90
2019-03-08T09:30:14.818Z,99.90
2019-03-08T09:32:58.873Z,99.90
2019-03-08T09:35:40.714Z,99.90
2019-03-08T09:38:36.595Z,99.90
2019-03-08T09:41:19.211Z,99.90
2019-03-08T09:44:06.427Z,99.90
2019-03-08T09:47:02.571Z,99.90
2019-03-08T09:49:57.006Z,99.90
2019-03-08T09:53:15.982Z,99.90
2019-03-08T09:56:58.048Z,99.90
2019-03-08T09:59:52.999Z,99.90
2019-03-08T10:02:48.295Z,99.90
2019-03-08T10:05:30.207Z,99.90
2019-03-08T10:08:22.089Z,99.90
2019-03-08T10:11:06.187Z,99.90
2019-03-08T10:14:02.884Z,99.90
2019-03-08T10:16:38.469Z,99.90
2019-03-08T10:19:36.233Z,99.90
2019-03-08T10:22:32.175Z,99.90
2019-03-08T10:25:12.934Z,99.90
2019-03-08T10:28:06.255Z,99.90
2019-03-08T10:30:55.219Z,99.90
2019-03-08T10:33:46.776Z,99.90
2019-03-08T10:36:26.992Z,99.90
2019-03-08T10:39:39.266Z,99.90
2019-03-08T10:42:31.329Z,95.60
2019-03-08T10:45:30.306Z,86.40
2019-03-08T10:48:03.588Z,91.70
2019-03-08T10:50:57.796Z,90.90
2019-03-08T10:53:57.730Z,85.60
2019-03-08T10:56:40.982Z,93.20
2019-03-08T10:59:45.339Z,83.10
2019-03-08T11:02:48.116Z,85.90
2019-03-08T11:05:46.265Z,85.50
2019-03-08T11:08:43.879Z,94.60
2019-03-08T11:11:38.486Z,90.00
2019-03-08T11:14:29.611Z,91.20
2019-03-08T11:17:10.262Z,89.60
2019-03-08T11:19:59.594Z,87.60
2019-03-08T11:22:46.940Z,90.10
2019-03-08T11:25:35.198Z,93.00
2019-03-08T11:28:46.196Z,96.10
2019-03-08T11:31:40.337Z,99.90
2019-03-08T11:34:35.471Z,99.90
2019-03-08T11:37:15.205Z,99.90
2019-03-08T11:40:07.262Z,99.90
2019-03-08T11:43:00.171Z,99.90
2019-03-08T11:45:45.666Z,99.90
2019-03-08T11:48:47.836Z,99.90
2019-03-08T11:51:35.496Z,99.90
2019-03-08T11:54:19.357Z,99.90
2019-03-08T11:57:17.210Z,99.90
2019-03-08T12:00:19.256Z,99.90
2019-03-08T12:03:12.839Z,99.90
2019-03-08T12:06:04.082Z,99.90
2019-03-08T12:09:09.587Z,99.90
2019-03-08T12:11:55.974Z,99.90
2019-03-08T12:14:45.788Z,99.90
2019-03-08T12:17:34.692Z,99.90
2019-03-08T12:20:35.247Z,99.90
2019-03-08T12:23:15.375Z,99.90
2019-03-08T12:26:11.199Z,99.90
2019-03-08T12:28:52.150Z,99.90
2019-03-08T12:32:03.035Z,99.90
2019-03-08T12:34:53.663Z,99.90
2019-03-08T12:37:48.367Z,98.90
2019-03-08T12:40:40.032Z,99.90
2019-03-08T12:43:46.546Z,99.90
2019-03-08T12:46:41.038Z,99.90
2019-03-08T12:49:38.642Z,99.90
2019-03-08T12:52:30.302Z,99.90
2019-03-08T12:55:33.292Z,99.90
2019-03-08T12:58:32.643Z,99.90
2019-03-08T13:01:35.851Z,99.90
2019-03-08T13:04:25.074Z,99.90
2019-03-08T13:07:23.277Z,99.90
2019-03-08T13:09:56.977Z,99.90
2019-03-08T13:12:28.143Z,97.10
2019-03-08T13:15:00.158Z,97.70
2019-03-08T13:17:30.967Z,99.90
2019-03-08T13:20:11.736Z,99.90
2019-03-08T13:22:48.042Z,99.90
2019-03-08T13:25:21.608Z,99.90
2019-03-08T13:27:57.176Z,99.90
2019-03-08T13:30:27.879Z,99.90
2019-03-08T13:33:01.305Z,98.20
2019-03-08T13:35:34.948Z,99.30
2019-03-08T13:38:07.189Z,98.10
2019-03-08T13:40:44.623Z,99.10
2019-03-08T13:43:17.660Z,99.50
2019-03-08T13:45:51.922Z,97.80
2019-03-08T13:48:28.947Z,97.70
2019-03-08T13:51:00.183Z,97.90
2019-03-08T13:55:16.140Z,97.00
2019-03-08T13:56:15.365Z,97.00
2019-03-08T13:58:46.308Z,96.30
2019-03-08T14:01:16.809Z,94.30
2019-03-08T14:03:49.661Z,92.40
2019-03-08T14:06:20.115Z,92.80
2019-03-08T14:08:53.134Z,86.10
2019-03-08T14:11:25.082Z,90.70
2019-03-08T14:13:57.297Z,71.50
2019-03-08T14:16:31.155Z,73.50
2019-03-08T14:19:03.760Z,74.40
2019-03-08T14:21:34.390Z,75.00
2019-03-08T14:24:10.777Z,75.30
2019-03-08T14:26:43.491Z,71.80
2019-03-08T14:29:14.356Z,73.90
2019-03-08T14:32:10.783Z,76.00
2019-03-08T14:34:40.931Z,72.90
2019-03-08T14:37:11.608Z,79.70
2019-03-08T14:39:44.254Z,81.70
2019-03-08T14:42:40.315Z,77.30
2019-03-08T14:45:22.657Z,81.20
2019-03-08T14:48:11.900Z,88.30
2019-03-08T14:51:03.037Z,86.80
2019-03-08T14:53:34.796Z,81.80
2019-03-08T14:56:09.116Z,86.30
2019-03-08T14:58:40.422Z,83.60
2019-03-08T15:01:16.420Z,85.50
2019-03-08T15:03:47.696Z,89.00
2019-03-08T15:06:28.045Z,83.80
2019-03-08T15:09:01.345Z,86.40
2019-03-08T15:11:35.251Z,87.20
2019-03-08T15:14:11.949Z,87.30
2019-03-08T15:16:42.347Z,90.00
2019-03-08T15:19:13.049Z,88.90
2019-03-08T15:21:48.193Z,88.50
2019-03-08T15:24:22.617Z,87.80
2019-03-08T15:26:53.112Z,91.60
2019-03-08T15:29:23.322Z,91.80
2019-03-08T15:31:58.720Z,88.90
2019-03-08T15:34:32.287Z,92.10
2019-03-08T15:37:04.950Z,88.20
2019-03-08T15:39:44.685Z,85.10
2019-03-08T15:42:18.388Z,90.30
2019-03-08T15:44:57.644Z,87.10
2019-03-08T15:47:27.602Z,85.10
2019-03-08T15:50:29.053Z,86.50
2019-03-08T15:53:06.755Z,84.50
2019-03-08T15:55:53.178Z,88.50
2019-03-08T15:58:22.106Z,89.30
2019-03-08T16:01:01.706Z,88.30
2019-03-08T16:03:45.470Z,84.70
2019-03-08T16:06:27.821Z,90.30
2019-03-08T16:11:43.666Z,91.80
2019-03-08T16:14:23.510Z,93.40
2019-03-08T16:16:57.940Z,93.90
2019-03-08T16:19:28.871Z,95.50
2019-03-08T16:22:05.229Z,95.50
2019-03-08T16:24:39.230Z,95.30
2019-03-08T16:27:13.437Z,96.00
2019-03-08T16:29:44.622Z,95.40
2019-03-08T16:32:28.830Z,95.90
2019-03-08T16:35:06.106Z,96.20
2019-03-08T16:38:10.759Z,96.90
2019-03-08T16:41:12.214Z,96.70
2019-03-08T16:44:10.887Z,97.20
2019-03-08T16:46:51.335Z,96.70
2019-03-08T16:49:51.964Z,95.40
2019-03-08T16:52:57.206Z,96.60
2019-03-08T16:56:04.481Z,96.70
2019-03-08T16:59:14.107Z,97.40
2019-03-08T17:02:34.819Z,98.10
2019-03-08T17:05:33.360Z,97.90
2019-03-08T17:08:38.711Z,98.30
2019-03-08T17:11:28.731Z,99.60
2019-03-08T17:14:16.506Z,99.90
2019-03-08T17:17:16.379Z,99.90
2019-03-08T17:19:58.784Z,99.90
2019-03-08T17:22:49.077Z,99.90
2019-03-08T17:26:02.570Z,99.90
2019-03-08T17:28:42.438Z,99.90
2019-03-08T17:31:32.821Z,99.90
2019-03-08T17:34:33.879Z,99.90
2019-03-08T17:37:21.168Z,99.90
2019-03-08T17:40:16.509Z,99.90
2019-03-08T17:43:14.296Z,99.90
2019-03-08T17:46:06.099Z,99.90
2019-03-08T17:48:55.614Z,99.90
2019-03-08T17:51:41.485Z,99.90
2019-03-08T17:54:50.547Z,99.90
2019-03-08T17:57:39.630Z,99.90
2019-03-08T18:00:31.322Z,99.90
2019-03-08T18:03:18.263Z,99.90
2019-03-08T18:06:18.875Z,99.90
2019-03-08T18:09:25.796Z,99.90
2019-03-08T18:12:13.012Z,99.90
2019-03-08T18:15:17.131Z,99.90
2019-03-08T18:18:04.193Z,99.90
2019-03-08T18:20:54.195Z,99.90
2019-03-08T18:23:49.027Z,99.90
2019-03-08T18:26:57.105Z,99.90
2019-03-08T18:29:45.793Z,99.90
2019-03-08T18:32:53.131Z,99.90
2019-03-08T18:35:48.951Z,99.90
2019-03-08T18:38:41.510Z,99.90
2019-03-08T18:41:33.804Z,99.90
2019-03-08T18:44:45.108Z,99.90
2019-03-08T18:47:36.526Z,99.90
2019-03-08T18:50:24.250Z,99.90
2019-03-08T18:53:14.529Z,99.90
2019-03-08T18:56:13.302Z,99.90
2019-03-08T18:59:02.369Z,99.90
2019-03-08T19:01:58.207Z,99.90
2019-03-08T19:04:52.587Z,99.90
2019-03-08T19:07:44.402Z,99.90
2019-03-08T19:10:39.438Z,99.90
2019-03-08T19:13:33.643Z,99.90
2019-03-08T19:16:45.178Z,99.90
2019-03-08T19:19:30.548Z,99.90
2019-03-08T19:22:28.446Z,99.90
2019-03-08T19:25:17.977Z,99.90
2019-03-08T19:28:07.188Z,99.90
2019-03-08T19:31:17.522Z,99.90
2019-03-08T19:34:16.425Z,99.90
2019-03-08T19:37:25.868Z,99.90
2019-03-08T19:40:27.986Z,99.90
2019-03-08T19:43:49.680Z,99.90
2019-03-08T19:46:54.467Z,99.90
2019-03-08T19:49:45.948Z,99.90
2019-03-08T19:52:42.788Z,99.90
2019-03-08T19:55:21.415Z,99.90
2019-03-08T19:58:27.807Z,99.90
2019-03-08T20:01:47.562Z,99.90
2019-03-08T20:05:05.083Z,99.90
2019-03-08T20:07:51.491Z,99.90
2019-03-08T20:10:55.747Z,99.90
2019-03-08T20:14:12.884Z,99.90
2019-03-08T20:17:18.506Z,99.90
2019-03-08T20:20:28.882Z,99.90
2019-03-08T20:23:29.494Z,99.90
2019-03-08T20:27:03.451Z,99.90
2019-03-08T20:30:14.626Z,99.90
2019-03-08T20:33:13.592Z,99.90
2019-03-08T20:36:28.736Z,99.90
2019-03-08T20:39:46.072Z,99.90
2019-03-08T20:43:09.729Z,99.90
2019-03-08T20:46:22.208Z,99.90
2019-03-08T20:49:41.192Z,99.90
2019-03-08T20:52:37.285Z,99.90
2019-03-08T20:55:34.184Z,99.90
2019-03-08T20:58:19.080Z,99.90
2019-03-08T21:01:25.601Z,99.90
2019-03-08T21:04:03.897Z,99.90
2019-03-08T21:06:41.823Z,99.90
2019-03-08T21:09:29.743Z,99.90
2019-03-08T21:12:06.349Z,99.90
2019-03-08T21:14:38.510Z,99.90
2019-03-08T21:17:14.288Z,99.90
2019-03-08T21:19:58.820Z,99.90
2019-03-08T21:22:46.484Z,99.90
2019-03-08T21:25:20.664Z,99.90
2019-03-08T21:27:52.677Z,99.90
2019-03-08T21:31:03.009Z,99.90
2019-03-08T21:33:50.795Z,99.90
2019-03-08T21:36:49.117Z,99.90
2019-03-08T21:39:21.762Z,99.90
2019-03-08T21:42:03.279Z,99.90
2019-03-08T21:44:39.151Z,99.90
2019-03-08T21:47:14.489Z,99.90
2019-03-08T21:49:50.638Z,99.90
2019-03-08T21:52:42.221Z,99.90
2019-03-08T21:55:06.854Z,99.90
2019-03-08T21:57:38.206Z,99.90
2019-03-08T22:00:33.451Z,99.90
2019-03-08T22:03:45.846Z,99.90
2019-03-08T22:06:11.777Z,99.90
2019-03-08T22:09:09.339Z,99.90
2019-03-08T22:11:51.151Z,99.90
2019-03-08T22:14:33.721Z,99.90
2019-03-08T22:17:19.761Z,99.90
2019-03-08T22:20:03.750Z,99.90
2019-03-08T22:22:50.345Z,99.90
2019-03-08T22:25:41.811Z,99.90
2019-03-08T22:28:12.111Z,99.90
2019-03-08T22:30:47.637Z,99.90
2019-03-08T22:33:27.147Z,99.90
2019-03-08T22:36:16.600Z,99.90
2019-03-08T22:39:00.327Z,99.90
2019-03-08T22:41:57.114Z,99.90
2019-03-08T22:44:27.624Z,99.90
2019-03-08T22:46:58.193Z,99.90
2019-03-08T22:49:29.012Z,99.90
2019-03-08T22:52:11.640Z,99.90
2019-03-08T22:54:48.414Z,99.90
2019-03-08T22:57:18.369Z,99.90
2019-03-08T22:59:48.320Z,99.90
2019-03-08T23:02:27.065Z,99.90
2019-03-08T23:04:57.612Z,99.90
2019-03-08T23:07:40.736Z,99.90
2019-03-08T23:10:16.812Z,99.90
2019-03-08T23:12:47.207Z,99.90
2019-03-08T23:15:20.976Z,99.90
2019-03-08T23:17:52.188Z,99.90
2019-03-08T23:20:26.271Z,99.90
2019-03-08T23:22:56.987Z,99.90
2019-03-08T23:25:45.765Z,99.90
2019-03-08T23:28:34.010Z,99.90
2019-03-08T23:31:41.220Z,99.90
2019-03-08T23:34:11.126Z,99.90
2019-03-08T23:36:46.064Z,99.90
2019-03-08T23:39:15.873Z,99.90
2019-03-08T23:41:47.364Z,99.90
2019-03-08T23:44:23.347Z,99.90
2019-03-08T23:46:54.659Z,99.90
2019-03-08T23:49:25.275Z,99.90
2019-03-08T23:51:58.365Z,99.90
2019-03-08T23:54:47.467Z,99.90
2019-03-08T23:57:18.821Z,99.90
2019-03-08T23:59:49.191Z,99.90
